Time,TemperatureF,DewpointF,PressureIn,WindDirection,WindDirectionDegrees,WindSpeedMPH,WindSpeedGustMPH,Humidity,HourlyPrecipIn,Conditions,Clouds,dailyrainin,SoftwareType,DateUTC
2013-07-17 00:09:00,73.7,70.0,30.12,West,271,0.0,-999.0,88,-99.99,,,0.00,weatherlink.com 1.10,2013-07-17 04:09:00,
2013-07-17 00:24:00,73.4,70.0,30.12,West,271,0.0,-999.0,88,-99.99,,,0.00,weatherlink.com 1.10,2013-07-17 04:24:00,
2013-07-17 00:39:00,73.0,70.0,30.12,West,271,0.0,-999.0,90,-99.99,,,0.00,weatherlink.com 1.10,2013-07-17 04:39:00,
2013-07-17 00:54:00,72.7,70.0,30.12,West,271,0.0,-999.0,90,-99.99,,,0.00,weatherlink.com 1.10,2013-07-17 04:54:00,
2013-07-17 01:09:00,72.4,70.0,30.12,West,271,0.0,-999.0,91,-99.99,,,0.00,weatherlink.com 1.10,2013-07-17 05:09:00,
2013-07-17 01:24:00,72.2,70.0,30.11,West,271,0.0,-999.0,91,-99.99,,,0.00,weatherlink.com 1.10,2013-07-17 05:24:00,
2013-07-17 01:39:00,72.0,70.0,30.11,West,271,0.0,-999.0,92,-99.99,,,0.00,weatherlink.com 1.10,2013-07-17 05:39:00,
2013-07-17 01:54:00,72.0,70.0,30.11,West,271,0.0,-999.0,92,-99.99,,,0.00,weatherlink.com 1.10,2013-07-17 05:54:00,
2013-07-17 02:09:00,71.7,69.0,30.11,West,271,0.0,-999.0,92,-99.99,,,0.00,weatherlink.com 1.10,2013-07-17 06:09:00,
2013-07-17 02:24:00,71.3,69.0,30.11,West,271,0.0,-999.0,93,-99.99,,,0.00,weatherlink.com 1.10,2013-07-17 06:24:00,
2013-07-17 02:39:00,71.2,69.0,30.11,West,271,0.0,-999.0,94,-99.99,,,0.00,weatherlink.com 1.10,2013-07-17 06:39:00,
2013-07-17 02:54:00,71.2,69.0,30.10,West,271,0.0,-999.0,94,-99.99,,,0.00,weatherlink.com 1.10,2013-07-17 06:54:00,
2013-07-17 03:09:00,71.0,69.0,30.10,West,271,0.0,-999.0,94,-99.99,,,0.00,weatherlink.com 1.10,2013-07-17 07:09:00,
2013-07-17 03:24:00,70.9,70.0,30.10,West,271,0.0,-999.0,95,-99.99,,,0.00,weatherlink.com 1.10,2013-07-17 07:24:00,
2013-07-17 03:40:00,70.8,69.0,30.10,West,271,0.0,-999.0,95,-99.99,,,0.00,weatherlink.com 1.10,2013-07-17 07:40:00,
2013-07-17 03:55:00,70.6,70.0,30.11,West,271,0.0,-999.0,96,-99.99,,,0.00,weatherlink.com 1.10,2013-07-17 07:55:00,
2013-07-17 04:10:00,70.6,70.0,30.11,West,271,0.0,-999.0,96,-99.99,,,0.00,weatherlink.com 1.10,2013-07-17 08:10:00,
2013-07-17 04:25:00,70.3,69.0,30.11,West,271,0.0,-999.0,96,-99.99,,,0.00,weatherlink.com 1.10,2013-07-17 08:25:00,
2013-07-17 04:40:00,70.1,69.0,30.11,West,271,0.0,-999.0,96,-99.99,,,0.00,weatherlink.com 1.10,2013-07-17 08:40:00,
2013-07-17 04:55:00,69.9,69.0,30.12,West,271,0.0,-999.0,96,-99.99,,,0.00,weatherlink.com 1.10,2013-07-17 08:55:00,
2013-07-17 05:10:00,69.8,69.0,30.12,West,271,0.0,-999.0,97,-99.99,,,0.00,weatherlink.com 1.10,2013-07-17 09:10:00,
2013-07-17 05:25:00,69.7,69.0,30.12,West,271,0.0,-999.0,97,-99.99,,,0.00,weatherlink.com 1.10,2013-07-17 09:25:00,
2013-07-17 05:40:00,69.6,69.0,30.13,West,271,0.0,-999.0,97,-99.99,,,0.00,weatherlink.com 1.10,2013-07-17 09:40:00,
2013-07-17 05:55:00,69.6,69.0,30.13,West,271,0.0,-999.0,97,-99.99,,,0.00,weatherlink.com 1.10,2013-07-17 09:55:00,
2013-07-17 06:10:00,69.7,69.0,30.13,West,271,0.0,-999.0,97,-99.99,,,0.00,weatherlink.com 1.10,2013-07-17 10:10:00,
2013-07-17 06:25:00,69.9,69.0,30.13,West,271,0.0,-999.0,97,-99.99,,,0.00,weatherlink.com 1.10,2013-07-17 10:25:00,
2013-07-17 06:40:00,70.1,69.0,30.13,West,271,0.0,-999.0,97,-99.99,,,0.00,weatherlink.com 1.10,2013-07-17 10:40:00,
2013-07-17 06:55:00,70.6,70.0,30.13,West,271,0.0,-999.0,98,-99.99,,,0.00,weatherlink.com 1.10,2013-07-17 10:55:00,
2013-07-17 07:10:00,71.3,71.0,30.13,West,271,0.0,-999.0,98,-99.99,,,0.00,weatherlink.com 1.10,2013-07-17 11:10:00,
2013-07-17 07:25:00,72.2,71.0,30.13,West,271,0.0,-999.0,96,-99.99,,,0.00,weatherlink.com 1.10,2013-07-17 11:25:00,
2013-07-17 07:40:00,73.1,71.0,30.13,West,271,0.0,-999.0,94,-99.99,,,0.00,weatherlink.com 1.10,2013-07-17 11:40:00,
2013-07-17 07:55:00,74.1,71.0,30.13,West,271,0.0,-999.0,91,-99.99,,,0.00,weatherlink.com 1.10,2013-07-17 11:55:00,
2013-07-17 08:10:00,75.1,72.0,30.13,West,271,0.0,-999.0,89,-99.99,,,0.00,weatherlink.com 1.10,2013-07-17 12:10:00,
2013-07-17 08:25:00,76.1,72.0,30.14,West,271,0.0,-999.0,87,-99.99,,,0.00,weatherlink.com 1.10,2013-07-17 12:25:00,
2013-07-17 08:40:00,77.6,72.0,30.14,West,271,0.0,-999.0,82,-99.99,,,0.00,weatherlink.com 1.10,2013-07-17 12:40:00,
2013-07-17 08:55:00,79.3,72.0,30.14,West,271,0.0,-999.0,77,-99.99,,,0.00,weatherlink.com 1.10,2013-07-17 12:55:00,
2013-07-17 09:10:00,80.3,72.0,30.13,West,271,0.0,-999.0,76,-99.99,,,0.00,weatherlink.com 1.10,2013-07-17 13:10:00,
2013-07-17 09:25:00,81.5,72.0,30.13,West,270,0.0,-999.0,72,-99.99,,,0.00,weatherlink.com 1.10,2013-07-17 13:25:00,
2013-07-17 09:40:00,83.3,72.0,30.13,SSE,161,1.0,-999.0,69,-99.99,,,0.00,weatherlink.com 1.10,2013-07-17 13:40:00,
2013-07-17 09:55:00,85.6,72.0,30.12,SSE,167,0.0,-999.0,63,-99.99,,,0.00,weatherlink.com 1.10,2013-07-17 13:55:00,
2013-07-17 10:10:00,87.1,71.0,30.12,SSE,168,0.0,-999.0,59,-99.99,,,0.00,weatherlink.com 1.10,2013-07-17 14:10:00,
2013-07-17 10:25:00,88.4,72.0,30.12,South,188,0.0,-999.0,59,-99.99,,,0.00,weatherlink.com 1.10,2013-07-17 14:25:00,
2013-07-17 10:40:00,90.6,73.0,30.11,West,259,0.0,-999.0,57,-99.99,,,0.00,weatherlink.com 1.10,2013-07-17 14:40:00,
2013-07-17 10:56:00,91.7,72.0,30.11,West,265,0.0,-999.0,53,-99.99,,,0.00,weatherlink.com 1.10,2013-07-17 14:56:00,
2013-07-17 11:11:00,91.3,73.0,30.11,SSE,157,0.0,-999.0,56,-99.99,,,0.00,weatherlink.com 1.10,2013-07-17 15:11:00,
2013-07-17 11:26:00,92.6,72.0,30.10,SSE,157,0.0,-999.0,52,-99.99,,,0.00,weatherlink.com 1.10,2013-07-17 15:26:00,
2013-07-17 11:41:00,93.1,72.0,30.10,West,271,0.0,-999.0,50,-99.99,,,0.00,weatherlink.com 1.10,2013-07-17 15:41:00,
2013-07-17 11:56:00,93.4,74.0,30.10,SW,219,0.0,-999.0,53,-99.99,,,0.00,weatherlink.com 1.10,2013-07-17 15:56:00,
2013-07-17 12:11:00,93.3,70.0,30.09,SSW,207,1.0,-999.0,47,-99.99,,,0.00,weatherlink.com 1.10,2013-07-17 16:11:00,
2013-07-17 12:26:00,95.0,73.0,30.09,SSW,209,1.0,-999.0,49,-99.99,,,0.00,weatherlink.com 1.10,2013-07-17 16:26:00,
2013-07-17 12:41:00,96.2,72.0,30.09,WSW,249,1.0,-999.0,46,-99.99,,,0.00,weatherlink.com 1.10,2013-07-17 16:41:00,
2013-07-17 12:56:00,96.0,71.0,30.08,SE,146,0.0,-999.0,44,-99.99,,,0.00,weatherlink.com 1.10,2013-07-17 16:56:00,
2013-07-17 13:11:00,95.2,71.0,30.08,NW,323,0.0,-999.0,46,-99.99,,,0.00,weatherlink.com 1.10,2013-07-17 17:11:00,
2013-07-17 13:26:00,96.4,74.0,30.08,WSW,245,0.0,-999.0,49,-99.99,,,0.00,weatherlink.com 1.10,2013-07-17 17:26:00,
2013-07-17 13:41:00,96.7,73.0,30.07,SE,141,0.0,-999.0,47,-99.99,,,0.00,weatherlink.com 1.10,2013-07-17 17:41:00,
2013-07-17 13:56:00,96.4,72.0,30.07,SSW,200,0.0,-999.0,46,-99.99,,,0.00,weatherlink.com 1.10,2013-07-17 17:56:00,
2013-07-17 14:11:00,96.2,72.0,30.06,NNW,335,0.0,-999.0,46,-99.99,,,0.00,weatherlink.com 1.10,2013-07-17 18:11:00,
2013-07-17 14:26:00,96.8,71.0,30.05,NNW,333,0.0,-999.0,43,-99.99,,,0.00,weatherlink.com 1.10,2013-07-17 18:26:00,
2013-07-17 14:41:00,97.8,71.0,30.05,SW,216,1.0,-999.0,42,-99.99,,,0.00,weatherlink.com 1.10,2013-07-17 18:41:00,
2013-07-17 14:56:00,98.6,72.0,30.04,SSW,206,0.0,-999.0,43,-99.99,,,0.00,weatherlink.com 1.10,2013-07-17 18:56:00,
2013-07-17 15:11:00,98.5,72.0,30.03,SSW,192,0.0,-999.0,42,-99.99,,,0.00,weatherlink.com 1.10,2013-07-17 19:11:00,
2013-07-17 15:26:00,97.6,72.0,30.02,SE,142,0.0,-999.0,44,-99.99,,,0.00,weatherlink.com 1.10,2013-07-17 19:26:00,
2013-07-17 15:41:00,97.2,72.0,30.02,SSW,207,1.0,-999.0,44,-99.99,,,0.00,weatherlink.com 1.10,2013-07-17 19:41:00,
2013-07-17 15:56:00,97.4,74.0,30.01,SSW,209,1.0,-999.0,47,-99.99,,,0.00,weatherlink.com 1.10,2013-07-17 19:56:00,
2013-07-17 16:11:00,97.9,73.0,30.00,SSW,193,0.0,-999.0,45,-99.99,,,0.00,weatherlink.com 1.10,2013-07-17 20:11:00,
2013-07-17 16:26:00,96.8,73.0,30.00,SW,219,1.0,-999.0,47,-99.99,,,0.00,weatherlink.com 1.10,2013-07-17 20:26:00,
2013-07-17 16:41:00,96.7,74.0,30.00,SSW,204,0.0,-999.0,48,-99.99,,,0.00,weatherlink.com 1.10,2013-07-17 20:41:00,
2013-07-17 16:56:00,95.8,73.0,29.99,SSW,208,0.0,-999.0,48,-99.99,,,0.00,weatherlink.com 1.10,2013-07-17 20:56:00,
2013-07-17 17:11:00,95.0,74.0,29.99,SSW,194,0.0,-999.0,50,-99.99,,,0.00,weatherlink.com 1.10,2013-07-17 21:11:00,
2013-07-17 17:26:00,94.0,74.0,29.99,SSW,199,0.0,-999.0,52,-99.99,,,0.00,weatherlink.com 1.10,2013-07-17 21:26:00,
2013-07-17 17:41:00,93.0,74.0,29.98,SSW,211,0.0,-999.0,54,-99.99,,,0.00,weatherlink.com 1.10,2013-07-17 21:41:00,
2013-07-17 17:56:00,92.3,74.0,29.98,SW,218,0.0,-999.0,55,-99.99,,,0.00,weatherlink.com 1.10,2013-07-17 21:56:00,
2013-07-17 18:11:00,91.9,73.0,29.96,SSW,200,0.0,-999.0,55,-99.99,,,0.00,weatherlink.com 1.10,2013-07-17 22:11:00,
2013-07-17 18:27:00,91.2,74.0,29.96,SSW,204,0.0,-999.0,57,-99.99,,,0.00,weatherlink.com 1.10,2013-07-17 22:27:00,
2013-07-17 18:42:00,90.5,74.0,29.96,South,183,0.0,-999.0,59,-99.99,,,0.00,weatherlink.com 1.10,2013-07-17 22:42:00,
2013-07-17 18:57:00,90.0,74.0,29.96,SSW,210,0.0,-999.0,60,-99.99,,,0.00,weatherlink.com 1.10,2013-07-17 22:57:00,
2013-07-17 19:12:00,89.6,75.0,29.96,SSE,168,0.0,-999.0,62,-99.99,,,0.00,weatherlink.com 1.10,2013-07-17 23:12:00,
2013-07-17 19:27:00,89.0,75.0,29.97,SSE,168,0.0,-999.0,63,-99.99,,,0.00,weatherlink.com 1.10,2013-07-17 23:27:00,
2013-07-17 19:42:00,88.3,74.0,29.97,SSE,168,0.0,-999.0,63,-99.99,,,0.00,weatherlink.com 1.10,2013-07-17 23:42:00,
2013-07-17 19:57:00,87.4,75.0,29.97,SSE,168,0.0,-999.0,67,-99.99,,,0.00,weatherlink.com 1.10,2013-07-17 23:57:00,
2013-07-17 20:12:00,86.6,75.0,29.97,SSE,168,0.0,-999.0,68,-99.99,,,0.00,weatherlink.com 1.10,2013-07-18 00:12:00,
2013-07-17 20:27:00,85.8,75.0,29.97,SSE,168,0.0,-999.0,69,-99.99,,,0.00,weatherlink.com 1.10,2013-07-18 00:27:00,
2013-07-17 20:42:00,85.1,74.0,29.97,SSE,168,0.0,-999.0,70,-99.99,,,0.00,weatherlink.com 1.10,2013-07-18 00:42:00,
2013-07-17 20:57:00,84.7,74.0,29.97,South,173,0.0,-999.0,71,-99.99,,,0.00,weatherlink.com 1.10,2013-07-18 00:57:00,
2013-07-17 21:12:00,84.4,74.0,29.97,SSW,207,0.0,-999.0,72,-99.99,,,0.00,weatherlink.com 1.10,2013-07-18 01:12:00,
2013-07-17 21:27:00,83.9,74.0,29.97,SSW,205,0.0,-999.0,73,-99.99,,,0.00,weatherlink.com 1.10,2013-07-18 01:27:00,
2013-07-17 21:42:00,83.5,74.0,29.97,SW,217,0.0,-999.0,74,-99.99,,,0.00,weatherlink.com 1.10,2013-07-18 01:42:00,
2013-07-17 21:57:00,83.2,75.0,29.98,SW,218,0.0,-999.0,76,-99.99,,,0.00,weatherlink.com 1.10,2013-07-18 01:57:00,
2013-07-17 22:12:00,82.9,75.0,29.98,SSW,213,0.0,-999.0,77,-99.99,,,0.00,weatherlink.com 1.10,2013-07-18 02:12:00,
2013-07-17 22:27:00,82.9,75.0,29.98,SW,221,0.0,-999.0,78,-99.99,,,0.00,weatherlink.com 1.10,2013-07-18 02:27:00,
2013-07-17 22:42:00,82.8,75.0,29.98,SSW,209,0.0,-999.0,78,-99.99,,,0.00,weatherlink.com 1.10,2013-07-18 02:42:00,
2013-07-17 22:57:00,82.5,75.0,29.97,SSW,206,0.0,-999.0,79,-99.99,,,0.00,weatherlink.com 1.10,2013-07-18 02:57:00,
2013-07-17 23:12:00,82.2,76.0,29.96,SSW,205,0.0,-999.0,80,-99.99,,,0.00,weatherlink.com 1.10,2013-07-18 03:12:00,
2013-07-17 23:27:00,81.8,76.0,29.95,SSW,200,0.0,-999.0,81,-99.99,,,0.00,weatherlink.com 1.10,2013-07-18 03:27:00,
2013-07-17 23:42:00,81.8,76.0,29.94,WSW,252,0.0,-999.0,81,-99.99,,,0.00,weatherlink.com 1.10,2013-07-18 03:42:00,
2013-07-17 23:57:00,81.2,75.0,29.94,SSW,213,0.0,-999.0,82,-99.99,,,0.00,weatherlink.com 1.10,2013-07-18 03:57:00,